createdAt,value
2022-12-03T00:00:28.161Z,24.13
2022-12-03T00:02:54.782Z,22.10
2022-12-03T00:05:21.268Z,23.10
2022-12-03T00:07:47.708Z,27.55
2022-12-03T00:10:14.255Z,23.67
2022-12-03T00:12:40.674Z,22.77
2022-12-03T00:15:07.800Z,23.45
2022-12-03T00:17:34.172Z,23.88
2022-12-03T00:20:00.566Z,24.27
2022-12-03T00:22:26.962Z,20.60
2022-12-03T00:24:53.760Z,24.77
2022-12-03T00:27:20.359Z,22.63
2022-12-03T00:29:46.789Z,24.63
2022-12-03T00:32:14.070Z,22.92
2022-12-03T00:34:40.430Z,22.85
2022-12-03T00:37:06.890Z,21.75
2022-12-03T00:39:33.249Z,22.33
2022-12-03T00:41:59.621Z,21.40
2022-12-03T00:44:26.126Z,28.70
2022-12-03T00:46:52.514Z,27.48
2022-12-03T00:49:18.989Z,22.60
2022-12-03T00:51:45.430Z,21.80
2022-12-03T00:54:12.059Z,21.65
2022-12-03T00:56:38.476Z,26.48
2022-12-03T00:59:04.914Z,22.90
2022-12-03T01:01:31.372Z,24.42
2022-12-03T01:03:57.938Z,24.50
2022-12-03T01:06:24.305Z,25.40
2022-12-03T01:08:50.641Z,23.60
2022-12-03T01:11:40.114Z,26.17
2022-12-03T01:14:17.607Z,24.80
2022-12-03T01:16:44.410Z,23.73
2022-12-03T01:19:15.670Z,22.08
2022-12-03T01:21:43.005Z,23.70
2022-12-03T01:24:09.469Z,25.35
2022-12-03T01:26:35.956Z,23.77
2022-12-03T01:29:02.354Z,23.23
2022-12-03T01:31:47.771Z,28.33
2022-12-03T01:34:14.242Z,22.38
2022-12-03T01:36:41.027Z,25.65
2022-12-03T01:39:07.648Z,23.17
2022-12-03T01:41:35.717Z,25.85
2022-12-03T01:44:04.489Z,24.90
2022-12-03T01:46:41.841Z,23.77
2022-12-03T01:49:15.226Z,22.35
2022-12-03T01:51:41.698Z,29.70
2022-12-03T01:54:16.463Z,29.55
2022-12-03T01:56:43.237Z,25.67
2022-12-03T01:59:15.304Z,25.30
2022-12-03T02:01:41.702Z,26.98
2022-12-03T02:04:12.162Z,26.38
2022-12-03T02:06:38.719Z,25.77
2022-12-03T02:09:08.406Z,24.45
2022-12-03T02:11:43.535Z,26.67
2022-12-03T02:14:13.398Z,25.52
2022-12-03T02:16:41.915Z,28.42
2022-12-03T02:19:28.379Z,24.58
2022-12-03T02:22:05.139Z,24.52
2022-12-03T02:25:15.340Z,22.95
2022-12-03T02:27:42.461Z,25.35
2022-12-03T02:30:10.381Z,25.60
2022-12-03T02:32:37.319Z,25.38
2022-12-03T02:35:04.358Z,25.77
2022-12-03T02:37:34.851Z,26.85
2022-12-03T02:40:07.851Z,27.23
2022-12-03T02:42:37.266Z,29.50
2022-12-03T02:45:11.047Z,27.45
2022-12-03T02:48:09.235Z,26.13
2022-12-03T02:50:40.070Z,24.83
2022-12-03T02:53:09.544Z,25.42
2022-12-03T02:55:37.562Z,26.83
2022-12-03T02:58:05.003Z,24.75
2022-12-03T03:00:31.770Z,28.10
2022-12-03T03:02:58.405Z,27.27
2022-12-03T03:05:25.093Z,25.27
2022-12-03T03:07:51.884Z,23.30
2022-12-03T03:10:22.132Z,25.80
2022-12-03T03:12:49.333Z,28.90
2022-12-03T03:15:16.025Z,26.67
2022-12-03T03:17:42.818Z,24.98
2022-12-03T03:20:11.318Z,25.88
2022-12-03T03:22:41.315Z,25.80
2022-12-03T03:25:12.199Z,24.73
2022-12-03T03:27:41.163Z,29.63
2022-12-03T03:30:09.521Z,24.02
2022-12-03T03:32:37.123Z,23.25
2022-12-03T03:35:06.118Z,24.52
2022-12-03T03:37:32.673Z,25.00
2022-12-03T03:39:59.166Z,24.08
2022-12-03T03:42:25.689Z,26.98
2022-12-03T03:44:52.387Z,26.40
2022-12-03T03:47:20.052Z,27.75
2022-12-03T03:49:47.860Z,30.67
2022-12-03T03:54:40.522Z,24.23
2022-12-03T03:57:07.268Z,26.65
2022-12-03T03:59:33.726Z,27.58
2022-12-03T04:02:00.050Z,28.05
2022-12-03T04:04:30.374Z,25.17
2022-12-03T04:06:56.881Z,26.77
2022-12-03T04:09:23.297Z,28.10
2022-12-03T04:12:08.619Z,27.95
2022-12-03T04:14:34.950Z,24.70
2022-12-03T04:17:01.312Z,28.92
2022-12-03T04:19:27.716Z,24.23
2022-12-03T04:22:12.520Z,25.67
2022-12-03T04:24:38.892Z,25.90
2022-12-03T04:27:23.681Z,27.98
2022-12-03T04:29:50.001Z,27.25
2022-12-03T04:32:35.217Z,27.77
2022-12-03T04:35:20.206Z,29.55
2022-12-03T04:37:46.605Z,27.10
2022-12-03T04:40:31.822Z,26.17
2022-12-03T04:42:58.145Z,23.17
2022-12-03T04:45:24.512Z,29.75
2022-12-03T04:47:50.849Z,33.13
2022-12-03T04:50:17.174Z,33.55
2022-12-03T04:52:43.595Z,32.42
2022-12-03T04:55:10.082Z,31.90
2022-12-03T04:57:36.462Z,27.35
2022-12-03T05:00:05.072Z,31.27
2022-12-03T05:02:31.480Z,28.45
2022-12-03T05:07:33.141Z,28.45
2022-12-03T05:09:59.530Z,26.15
2022-12-03T05:12:25.869Z,27.45
2022-12-03T05:14:52.570Z,29.58
2022-12-03T05:17:19.013Z,30.10
2022-12-03T05:20:04.219Z,29.77
2022-12-03T05:22:30.561Z,27.90
2022-12-03T05:24:57.046Z,31.40
2022-12-03T05:27:24.262Z,31.77
2022-12-03T05:29:51.132Z,25.75
2022-12-03T05:32:17.529Z,24.90
2022-12-03T05:34:43.954Z,30.70
2022-12-03T05:37:10.311Z,26.25
2022-12-03T05:39:36.845Z,28.65
2022-12-03T05:42:21.954Z,30.52
2022-12-03T05:44:48.286Z,27.58
2022-12-03T05:47:14.860Z,28.63
2022-12-03T05:49:41.378Z,31.42
2022-12-03T05:52:07.925Z,30.55
2022-12-03T05:54:34.250Z,28.58
2022-12-03T05:57:00.676Z,29.30
2022-12-03T05:59:27.161Z,27.38
2022-12-03T06:01:53.492Z,30.08
2022-12-03T06:04:19.853Z,31.13
2022-12-03T06:06:46.193Z,29.90
2022-12-03T06:09:12.506Z,29.48
2022-12-03T06:11:40.168Z,33.30
2022-12-03T06:14:06.643Z,30.65
2022-12-03T06:16:33.024Z,25.95
2022-12-03T06:18:59.457Z,25.80
2022-12-03T06:21:25.813Z,27.55
2022-12-03T06:23:52.150Z,31.45
2022-12-03T06:26:18.570Z,30.20
2022-12-03T06:28:46.390Z,24.95
2022-12-03T06:33:39.767Z,30.77
2022-12-03T06:36:06.619Z,26.63
2022-12-03T06:38:32.975Z,25.75
2022-12-03T06:40:59.424Z,25.83
2022-12-03T06:43:40.946Z,25.88
2022-12-03T06:46:07.331Z,27.48
2022-12-03T06:48:33.677Z,23.90
2022-12-03T06:51:00.140Z,27.65
2022-12-03T06:53:26.473Z,30.13
2022-12-03T06:55:52.910Z,27.83
2022-12-03T06:58:19.234Z,25.77
2022-12-03T07:00:45.848Z,27.23
2022-12-03T07:03:12.337Z,28.70
2022-12-03T07:13:36.377Z,26.85
2022-12-03T07:18:38.039Z,22.80
2022-12-03T07:21:04.428Z,28.88
2022-12-03T07:23:30.747Z,28.05
2022-12-03T07:25:57.135Z,27.60
2022-12-03T07:28:23.449Z,26.38
2022-12-03T07:30:49.952Z,25.95
2022-12-03T07:33:16.280Z,29.45
2022-12-03T07:35:42.706Z,31.52
2022-12-03T07:38:09.035Z,27.88
2022-12-03T07:40:35.362Z,26.10
2022-12-03T07:43:01.805Z,31.08
2022-12-03T07:45:28.250Z,24.08
2022-12-03T07:47:54.598Z,24.13
2022-12-03T07:50:20.964Z,25.92
2022-12-03T07:52:47.397Z,27.33
2022-12-03T07:55:13.982Z,31.88
2022-12-03T07:57:40.365Z,27.55
2022-12-03T08:00:07.566Z,30.23
2022-12-03T08:02:34.000Z,27.90
2022-12-03T08:05:00.413Z,22.67
2022-12-03T08:07:26.767Z,25.70
2022-12-03T08:09:53.133Z,26.63
2022-12-03T08:12:42.852Z,28.65
2022-12-03T08:15:13.908Z,23.73
2022-12-03T08:17:42.197Z,25.70
2022-12-03T08:20:14.384Z,23.58
2022-12-03T08:22:42.569Z,27.42
2022-12-03T08:25:35.463Z,25.30
2022-12-03T08:28:12.048Z,20.23
2022-12-03T08:30:39.934Z,22.45
2022-12-03T08:35:44.693Z,23.60
2022-12-03T08:38:12.847Z,23.08
2022-12-03T08:40:41.569Z,22.27
2022-12-03T08:43:26.091Z,21.20
2022-12-03T08:45:57.022Z,26.27
2022-12-03T08:48:36.674Z,22.33
2022-12-03T08:51:11.089Z,24.85
2022-12-03T08:53:42.955Z,20.00
2022-12-03T08:56:23.942Z,27.02
2022-12-03T08:59:21.174Z,24.90
2022-12-03T09:01:48.832Z,21.95
2022-12-03T09:04:27.584Z,24.00
2022-12-03T09:06:54.756Z,23.88
2022-12-03T09:09:21.929Z,24.92
2022-12-03T09:11:48.415Z,22.13
2022-12-03T09:14:18.474Z,27.23
2022-12-03T09:16:45.429Z,24.95
2022-12-03T09:19:11.872Z,22.23
2022-12-03T09:21:38.225Z,25.38
2022-12-03T09:24:04.851Z,24.10
2022-12-03T09:26:31.348Z,23.70
2022-12-03T09:28:57.725Z,24.73
2022-12-03T09:31:24.386Z,22.80
2022-12-03T09:33:51.005Z,24.98
2022-12-03T09:36:17.397Z,26.00
2022-12-03T09:38:47.704Z,26.55
2022-12-03T09:41:14.682Z,25.17
2022-12-03T09:44:03.487Z,25.65
2022-12-03T09:46:28.979Z,22.70
2022-12-03T09:48:55.462Z,24.35
2022-12-03T09:51:22.609Z,20.52
2022-12-03T09:53:49.150Z,24.95
2022-12-03T09:56:20.404Z,23.80
2022-12-03T09:58:46.925Z,24.08
2022-12-03T10:01:15.170Z,27.02
2022-12-03T10:03:48.689Z,21.00
2022-12-03T10:06:21.250Z,23.17
2022-12-03T10:08:49.985Z,25.92
2022-12-03T10:11:18.633Z,20.80
2022-12-03T10:13:46.028Z,23.17
2022-12-03T10:16:15.430Z,25.00
2022-12-03T10:18:47.141Z,25.95
2022-12-03T10:21:20.307Z,20.98
2022-12-03T10:23:50.768Z,24.50
2022-12-03T10:26:35.811Z,20.40
2022-12-03T10:29:02.150Z,23.67
2022-12-03T10:31:35.629Z,23.75
2022-12-03T10:34:01.994Z,19.92
2022-12-03T10:36:28.377Z,25.45
2022-12-03T10:39:15.808Z,22.73
2022-12-03T10:41:44.143Z,24.08
2022-12-03T10:44:25.942Z,21.00
2022-12-03T10:47:13.263Z,20.92
2022-12-03T10:49:41.571Z,22.17
2022-12-03T10:52:25.709Z,24.58
2022-12-03T10:54:52.759Z,24.52
2022-12-03T10:57:19.500Z,24.25
2022-12-03T10:59:45.875Z,24.38
2022-12-03T11:02:19.955Z,25.20
2022-12-03T11:04:46.797Z,20.85
2022-12-03T11:07:16.040Z,19.13
2022-12-03T11:09:45.310Z,22.90
2022-12-03T11:12:22.030Z,23.85
2022-12-03T11:14:54.919Z,20.15
2022-12-03T11:17:42.867Z,22.08
2022-12-03T11:20:10.346Z,21.85
2022-12-03T11:22:41.388Z,21.80
2022-12-03T11:25:26.036Z,19.02
2022-12-03T11:28:13.486Z,19.13
2022-12-03T11:30:49.141Z,18.55
2022-12-03T11:33:32.934Z,22.45
2022-12-03T11:36:08.099Z,21.05
2022-12-03T11:38:37.491Z,23.67
2022-12-03T11:41:23.782Z,21.17
2022-12-03T11:43:53.168Z,16.88
2022-12-03T11:46:36.291Z,17.27
2022-12-03T11:49:18.744Z,19.65
2022-12-03T11:51:45.251Z,17.40
2022-12-03T11:54:16.368Z,15.93
2022-12-03T11:56:48.953Z,21.05
2022-12-03T11:59:17.236Z,21.17
2022-12-03T12:01:44.470Z,20.70
2022-12-03T12:04:30.001Z,18.27
2022-12-03T12:10:48.450Z,17.38
2022-12-03T12:13:30.195Z,17.42
2022-12-03T12:16:05.074Z,19.80
2022-12-03T12:18:38.572Z,18.27
2022-12-03T12:21:43.698Z,20.52
2022-12-03T12:24:30.994Z,22.42
2022-12-03T12:27:06.135Z,17.73
2022-12-03T12:29:32.573Z,17.85
2022-12-03T12:32:15.120Z,19.25
2022-12-03T12:34:44.612Z,17.73
2022-12-03T12:37:28.145Z,22.50
2022-12-03T12:39:56.910Z,15.25
2022-12-03T12:42:34.826Z,19.38
2022-12-03T12:45:16.531Z,17.17
2022-12-03T12:47:49.903Z,14.00
2022-12-03T12:50:18.296Z,18.80
2022-12-03T12:52:51.546Z,18.75
2022-12-03T12:55:18.953Z,19.58
2022-12-03T12:57:45.359Z,21.08
2022-12-03T13:00:23.336Z,21.02
2022-12-03T13:02:55.202Z,18.50
2022-12-03T13:05:21.849Z,23.33
2022-12-03T13:07:48.369Z,16.25
2022-12-03T13:10:24.413Z,15.57
2022-12-03T13:12:50.867Z,17.63
2022-12-03T13:15:35.810Z,19.25
2022-12-03T13:18:17.870Z,16.98
2022-12-03T13:20:44.211Z,16.58
2022-12-03T13:23:25.990Z,16.40
2022-12-03T13:26:09.255Z,14.68
2022-12-03T13:28:41.714Z,17.70
2022-12-03T13:31:26.130Z,18.50
2022-12-03T13:33:53.622Z,16.17
2022-12-03T13:36:22.472Z,18.02
2022-12-03T13:38:49.280Z,17.73
2022-12-03T13:41:38.256Z,17.33
2022-12-03T13:44:17.955Z,14.30
2022-12-03T13:46:45.433Z,16.85
2022-12-03T13:49:20.011Z,14.43
2022-12-03T13:51:47.234Z,20.88
2022-12-03T13:54:20.343Z,13.95
2022-12-03T13:56:46.845Z,13.88
2022-12-03T13:59:14.120Z,18.02
2022-12-03T14:01:40.699Z,13.93
2022-12-03T14:04:07.243Z,16.35
2022-12-03T14:06:33.822Z,16.30
2022-12-03T14:09:00.378Z,18.30
2022-12-03T14:11:45.119Z,14.82
2022-12-03T14:14:11.623Z,16.75
2022-12-03T14:16:38.031Z,16.55
2022-12-03T14:19:04.569Z,15.57
2022-12-03T14:21:30.938Z,18.75
2022-12-03T14:23:57.303Z,18.05
2022-12-03T14:26:23.666Z,15.45
2022-12-03T14:28:50.128Z,19.60
2022-12-03T14:31:16.554Z,13.52
2022-12-03T14:33:43.002Z,11.68
2022-12-03T14:36:09.537Z,14.95
2022-12-03T14:38:35.882Z,16.08
2022-12-03T14:41:02.383Z,14.18
2022-12-03T14:43:28.734Z,16.10
2022-12-03T14:45:55.273Z,13.18
2022-12-03T14:48:21.739Z,16.75
2022-12-03T14:50:48.191Z,14.13
2022-12-03T14:53:14.530Z,14.77
2022-12-03T14:55:40.959Z,13.98
2022-12-03T14:58:07.283Z,16.00
2022-12-03T15:00:33.704Z,16.67
2022-12-03T15:03:00.274Z,14.68
2022-12-03T15:05:28.764Z,14.15
2022-12-03T15:07:55.493Z,14.30
2022-12-03T15:10:21.921Z,14.82
2022-12-03T15:12:48.345Z,14.57
2022-12-03T15:15:14.989Z,13.45
2022-12-03T15:17:41.888Z,14.00
2022-12-03T15:20:08.814Z,13.50
2022-12-03T15:22:35.258Z,15.57
2022-12-03T15:25:03.338Z,13.02
2022-12-03T15:27:29.810Z,14.00
2022-12-03T15:29:56.472Z,17.80
2022-12-03T15:32:23.127Z,14.10
2022-12-03T15:34:51.277Z,15.35
2022-12-03T15:37:17.714Z,14.00
2022-12-03T15:39:48.375Z,22.75
2022-12-03T15:42:15.406Z,16.55
2022-12-03T15:44:41.737Z,14.13
2022-12-03T15:47:08.174Z,15.55
2022-12-03T15:49:34.582Z,17.52
2022-12-03T15:52:00.927Z,13.80
2022-12-03T15:54:27.232Z,15.55
2022-12-03T15:56:57.290Z,16.77
2022-12-03T15:59:24.042Z,17.33
2022-12-03T16:01:50.485Z,20.30
2022-12-03T16:04:17.175Z,20.13
2022-12-03T16:06:43.489Z,18.88
2022-12-03T16:09:09.921Z,18.23
2022-12-03T16:11:36.250Z,18.30
2022-12-03T16:14:02.601Z,14.95
2022-12-03T16:16:29.147Z,15.48
2022-12-03T16:18:55.544Z,15.82
2022-12-03T16:21:26.484Z,15.05
2022-12-03T16:23:53.637Z,16.60
2022-12-03T16:26:19.940Z,18.25
2022-12-03T16:28:46.303Z,17.88
2022-12-03T16:31:12.733Z,20.15
2022-12-03T16:33:39.105Z,13.02
2022-12-03T16:36:05.617Z,15.73
2022-12-03T16:38:33.542Z,15.18
2022-12-03T16:41:01.469Z,13.43
2022-12-03T16:43:28.173Z,18.35
2022-12-03T16:46:21.051Z,12.90
2022-12-03T16:48:48.223Z,13.68
2022-12-03T16:51:15.189Z,15.18
2022-12-03T16:53:41.652Z,15.20
2022-12-03T16:56:08.827Z,20.02
2022-12-03T16:58:35.316Z,15.38
2022-12-03T17:01:01.726Z,17.90
2022-12-03T17:03:33.607Z,15.40
2022-12-03T17:06:00.795Z,15.85
2022-12-03T17:08:27.213Z,15.88
2022-12-03T17:10:53.613Z,17.27
2022-12-03T17:13:20.100Z,20.42
2022-12-03T17:15:46.504Z,11.88
2022-12-03T17:18:12.879Z,16.70
2022-12-03T17:20:39.184Z,17.00
2022-12-03T17:23:05.491Z,13.93
2022-12-03T17:25:32.025Z,15.75
2022-12-03T17:27:58.405Z,16.98
2022-12-03T17:30:24.752Z,15.80
2022-12-03T17:32:51.084Z,16.23
2022-12-03T17:35:18.383Z,16.08
2022-12-03T17:37:45.131Z,19.23
2022-12-03T17:40:14.045Z,16.00
2022-12-03T17:42:40.555Z,15.45
2022-12-03T17:45:07.620Z,15.43
2022-12-03T17:47:34.055Z,15.48
2022-12-03T17:50:00.524Z,17.15
2022-12-03T17:52:26.935Z,15.88
2022-12-03T17:55:10.760Z,16.13
2022-12-03T18:00:06.391Z,15.85
2022-12-03T18:02:32.750Z,13.35
2022-12-03T18:04:59.336Z,14.60
2022-12-03T18:07:25.749Z,17.58
2022-12-03T18:09:53.330Z,16.67
2022-12-03T18:12:20.020Z,15.07
2022-12-03T18:14:46.370Z,15.35
2022-12-03T18:17:13.871Z,13.27
2022-12-03T18:19:40.282Z,16.40
2022-12-03T18:22:06.626Z,13.43
2022-12-03T18:24:33.331Z,16.83
2022-12-03T18:26:59.673Z,18.17
2022-12-03T18:29:26.154Z,15.23
2022-12-03T18:31:52.743Z,13.93
2022-12-03T18:34:19.143Z,16.55
2022-12-03T18:36:45.819Z,14.25
2022-12-03T18:39:22.953Z,14.93
2022-12-03T18:41:49.417Z,14.13
2022-12-03T18:44:15.856Z,16.80
2022-12-03T18:46:53.314Z,16.70
2022-12-03T18:49:20.915Z,17.58
2022-12-03T18:51:48.441Z,16.13
2022-12-03T18:54:15.405Z,16.00
2022-12-03T18:56:41.941Z,15.73
2022-12-03T18:59:09.076Z,14.40
2022-12-03T19:01:35.642Z,15.85
2022-12-03T19:04:02.128Z,17.13
2022-12-03T19:06:30.348Z,16.73
2022-12-03T19:08:56.837Z,15.70
2022-12-03T19:11:23.423Z,34.13
2022-12-03T19:13:49.898Z,17.30
2022-12-03T19:16:17.130Z,17.33
2022-12-03T19:18:44.211Z,15.02
2022-12-03T19:21:13.578Z,17.48
2022-12-03T19:23:40.031Z,15.63
2022-12-03T19:26:08.314Z,17.00
2022-12-03T19:28:35.317Z,16.15
2022-12-03T19:31:08.608Z,14.80
2022-12-03T19:33:35.575Z,14.30
2022-12-03T19:36:04.318Z,16.00
2022-12-03T19:38:31.539Z,16.25
2022-12-03T19:41:09.178Z,16.05
2022-12-03T19:43:36.803Z,14.57
2022-12-03T19:46:04.692Z,17.00
2022-12-03T19:48:32.195Z,15.75
2022-12-03T19:51:19.802Z,17.15
2022-12-03T19:53:46.048Z,13.02
2022-12-03T19:56:18.389Z,15.07
2022-12-03T19:58:46.377Z,15.20
2022-12-03T20:01:19.333Z,14.55
2022-12-03T20:03:48.073Z,15.30
2022-12-03T20:06:16.405Z,16.75
2022-12-03T20:08:43.038Z,16.38
2022-12-03T20:11:15.406Z,16.17
2022-12-03T20:13:42.889Z,15.98
2022-12-03T20:16:12.573Z,14.75
2022-12-03T20:18:40.456Z,14.80
2022-12-03T20:23:33.734Z,12.25
2022-12-03T20:26:00.511Z,13.77
2022-12-03T20:28:28.299Z,17.10
2022-12-03T20:31:02.741Z,17.98
2022-12-03T20:33:29.268Z,17.23
2022-12-03T20:35:56.921Z,17.88
2022-12-03T20:38:26.128Z,12.98
2022-12-03T20:40:53.839Z,15.65
2022-12-03T20:43:20.519Z,16.80
2022-12-03T20:45:46.913Z,19.63
2022-12-03T20:48:13.366Z,18.17
2022-12-03T20:50:39.871Z,16.40
2022-12-03T20:53:24.194Z,13.82
2022-12-03T20:55:58.477Z,13.18
2022-12-03T20:58:25.031Z,13.48
2022-12-03T21:00:51.561Z,11.38
2022-12-03T21:03:17.999Z,13.07
2022-12-03T21:05:44.434Z,18.02
2022-12-03T21:08:11.861Z,15.57
2022-12-03T21:10:45.870Z,12.93
2022-12-03T21:13:16.797Z,16.27
2022-12-03T21:15:44.234Z,17.98
2022-12-03T21:18:13.971Z,13.95
2022-12-03T21:20:45.656Z,15.18
2022-12-03T21:23:13.202Z,13.15
2022-12-03T21:25:40.391Z,14.80
2022-12-03T21:28:08.639Z,11.40
2022-12-03T21:30:38.374Z,16.85
2022-12-03T21:33:06.044Z,15.88
2022-12-03T21:35:32.642Z,15.48
2022-12-03T21:37:59.089Z,16.42
2022-12-03T21:40:25.407Z,16.75
2022-12-03T21:42:51.768Z,16.10
2022-12-03T21:45:18.218Z,14.90
2022-12-03T21:47:48.069Z,15.13
2022-12-03T21:50:14.639Z,13.55
2022-12-03T21:52:41.183Z,13.68
2022-12-03T21:55:07.891Z,12.23
2022-12-03T21:57:37.916Z,14.63
2022-12-03T22:00:07.678Z,13.30
2022-12-03T22:02:34.368Z,12.02
2022-12-03T22:05:00.742Z,15.52
2022-12-03T22:07:27.154Z,14.50
2022-12-03T22:09:53.947Z,14.68
2022-12-03T22:12:20.532Z,14.45
2022-12-03T22:14:46.875Z,14.18
2022-12-03T22:17:13.301Z,14.68
2022-12-03T22:19:39.844Z,16.30
2022-12-03T22:22:06.174Z,14.23
2022-12-03T22:24:32.534Z,12.48
2022-12-03T22:26:58.922Z,15.40
2022-12-03T22:29:25.303Z,18.08
2022-12-03T22:31:51.694Z,17.15
2022-12-03T22:34:18.049Z,15.65
2022-12-03T22:36:44.476Z,15.45
2022-12-03T22:39:10.905Z,14.68
2022-12-03T22:41:37.259Z,14.55
2022-12-03T22:44:03.872Z,13.75
2022-12-03T22:46:30.369Z,14.40
2022-12-03T22:49:00.515Z,13.63
2022-12-03T22:51:30.251Z,12.95
2022-12-03T22:53:58.451Z,13.25
2022-12-03T22:56:26.310Z,11.32
2022-12-03T23:01:27.956Z,15.38
2022-12-03T23:03:54.644Z,13.50
2022-12-03T23:06:22.546Z,12.35
2022-12-03T23:11:15.615Z,9.68
2022-12-03T23:13:42.396Z,12.63
2022-12-03T23:16:14.293Z,16.75
2022-12-03T23:18:41.084Z,17.02
2022-12-03T23:21:07.768Z,12.48
2022-12-03T23:23:34.264Z,13.75
2022-12-03T23:26:02.784Z,12.25
2022-12-03T23:28:30.938Z,12.38
2022-12-03T23:30:57.666Z,13.82
2022-12-03T23:33:24.441Z,13.65
2022-12-03T23:35:51.028Z,12.50
2022-12-03T23:38:17.744Z,13.55
2022-12-03T23:40:48.069Z,12.38
2022-12-03T23:43:15.278Z,14.95
2022-12-03T23:45:41.668Z,14.63
2022-12-03T23:48:08.048Z,12.20
2022-12-03T23:50:34.855Z,11.05
2022-12-03T23:53:01.236Z,13.18
2022-12-03T23:55:27.587Z,12.48
2022-12-03T23:57:53.926Z,12.65
